sensor_id;sensor_type;location;lat;lon;timestamp;P1;durP1;ratioP1;P2;durP2;ratioP2
71622;SDS011;59473;53.214;5.728;2023-03-19T00:01:48;7.37;;;4.67;;
71622;SDS011;59473;53.214;5.728;2023-03-19T00:04:14;9.55;;;4.57;;
71622;SDS011;59473;53.214;5.728;2023-03-19T00:06:40;12.15;;;5.13;;
71622;SDS011;59473;53.214;5.728;2023-03-19T00:09:06;9.30;;;4.60;;
71622;SDS011;59473;53.214;5.728;2023-03-19T00:11:31;9.03;;;4.43;;
71622;SDS011;59473;53.214;5.728;2023-03-19T00:13:57;8.23;;;4.70;;
71622;SDS011;59473;53.214;5.728;2023-03-19T00:16:22;7.93;;;4.53;;
71622;SDS011;59473;53.214;5.728;2023-03-19T00:18:47;7.17;;;4.77;;
71622;SDS011;59473;53.214;5.728;2023-03-19T00:21:13;14.27;;;4.85;;
71622;SDS011;59473;53.214;5.728;2023-03-19T00:23:38;8.38;;;4.47;;
71622;SDS011;59473;53.214;5.728;2023-03-19T00:26:03;7.77;;;4.50;;
71622;SDS011;59473;53.214;5.728;2023-03-19T00:28:29;7.77;;;4.20;;
71622;SDS011;59473;53.214;5.728;2023-03-19T00:30:54;10.03;;;4.53;;
71622;SDS011;59473;53.214;5.728;2023-03-19T00:33:20;7.73;;;4.20;;
71622;SDS011;59473;53.214;5.728;2023-03-19T00:35:45;9.07;;;4.82;;
71622;SDS011;59473;53.214;5.728;2023-03-19T00:38:11;8.87;;;4.53;;
71622;SDS011;59473;53.214;5.728;2023-03-19T00:40:36;11.00;;;4.90;;
71622;SDS011;59473;53.214;5.728;2023-03-19T00:43:02;8.88;;;4.57;;
71622;SDS011;59473;53.214;5.728;2023-03-19T00:45:27;9.25;;;4.47;;
71622;SDS011;59473;53.214;5.728;2023-03-19T00:47:54;10.37;;;4.50;;
71622;SDS011;59473;53.214;5.728;2023-03-19T00:50:20;9.57;;;4.93;;
71622;SDS011;59473;53.214;5.728;2023-03-19T00:52:45;7.37;;;4.10;;
71622;SDS011;59473;53.214;5.728;2023-03-19T00:55:10;8.53;;;4.87;;
71622;SDS011;59473;53.214;5.728;2023-03-19T00:57:36;9.20;;;4.57;;
71622;SDS011;59473;53.214;5.728;2023-03-19T01:00:02;8.40;;;4.43;;
71622;SDS011;59473;53.214;5.728;2023-03-19T01:02:27;9.00;;;4.80;;
71622;SDS011;59473;53.214;5.728;2023-03-19T01:04:53;10.48;;;5.30;;
71622;SDS011;59473;53.214;5.728;2023-03-19T01:07:18;10.97;;;4.80;;
71622;SDS011;59473;53.214;5.728;2023-03-19T01:09:43;9.23;;;5.33;;
71622;SDS011;59473;53.214;5.728;2023-03-19T01:12:08;8.63;;;4.90;;
71622;SDS011;59473;53.214;5.728;2023-03-19T01:14:34;9.37;;;4.83;;
71622;SDS011;59473;53.214;5.728;2023-03-19T01:16:59;10.93;;;5.10;;
71622;SDS011;59473;53.214;5.728;2023-03-19T01:19:25;10.83;;;4.87;;
71622;SDS011;59473;53.214;5.728;2023-03-19T01:21:50;7.97;;;4.73;;
71622;SDS011;59473;53.214;5.728;2023-03-19T01:24:15;9.10;;;5.20;;
71622;SDS011;59473;53.214;5.728;2023-03-19T01:26:41;8.48;;;4.43;;
71622;SDS011;59473;53.214;5.728;2023-03-19T01:29:06;8.97;;;4.43;;
71622;SDS011;59473;53.214;5.728;2023-03-19T01:31:32;9.10;;;4.50;;
71622;SDS011;59473;53.214;5.728;2023-03-19T01:33:58;8.23;;;4.15;;
71622;SDS011;59473;53.214;5.728;2023-03-19T01:36:23;6.70;;;3.73;;
71622;SDS011;59473;53.214;5.728;2023-03-19T01:38:48;8.57;;;3.87;;
71622;SDS011;59473;53.214;5.728;2023-03-19T01:41:14;10.27;;;5.03;;
71622;SDS011;59473;53.214;5.728;2023-03-19T01:43:40;7.60;;;4.20;;
71622;SDS011;59473;53.214;5.728;2023-03-19T01:51:05;9.80;;;4.83;;
71622;SDS011;59473;53.214;5.728;2023-03-19T01:53:32;8.35;;;4.45;;
71622;SDS011;59473;53.214;5.728;2023-03-19T01:56:00;9.30;;;5.03;;
71622;SDS011;59473;53.214;5.728;2023-03-19T01:58:27;6.95;;;4.40;;
71622;SDS011;59473;53.214;5.728;2023-03-19T02:00:52;8.73;;;5.00;;
71622;SDS011;59473;53.214;5.728;2023-03-19T02:03:17;12.57;;;4.83;;
71622;SDS011;59473;53.214;5.728;2023-03-19T02:05:43;9.53;;;5.67;;
71622;SDS011;59473;53.214;5.728;2023-03-19T02:08:10;11.43;;;5.70;;
71622;SDS011;59473;53.214;5.728;2023-03-19T02:10:36;10.70;;;5.90;;
71622;SDS011;59473;53.214;5.728;2023-03-19T02:13:01;11.95;;;6.82;;
71622;SDS011;59473;53.214;5.728;2023-03-19T02:15:27;14.07;;;7.17;;
71622;SDS011;59473;53.214;5.728;2023-03-19T02:17:52;12.90;;;7.23;;
71622;SDS011;59473;53.214;5.728;2023-03-19T02:20:35;13.45;;;7.00;;
71622;SDS011;59473;53.214;5.728;2023-03-19T02:23:17;13.97;;;8.17;;
71622;SDS011;59473;53.214;5.728;2023-03-19T02:28:15;14.85;;;8.65;;
71622;SDS011;59473;53.214;5.728;2023-03-19T02:30:43;16.48;;;8.80;;
71622;SDS011;59473;53.214;5.728;2023-03-19T02:33:11;15.90;;;9.40;;
71622;SDS011;59473;53.214;5.728;2023-03-19T02:35:37;16.95;;;9.70;;
71622;SDS011;59473;53.214;5.728;2023-03-19T02:38:02;17.03;;;10.20;;
71622;SDS011;59473;53.214;5.728;2023-03-19T02:40:29;15.70;;;9.98;;
71622;SDS011;59473;53.214;5.728;2023-03-19T02:42:55;16.35;;;10.90;;
71622;SDS011;59473;53.214;5.728;2023-03-19T02:45:20;17.27;;;10.70;;
71622;SDS011;59473;53.214;5.728;2023-03-19T02:47:47;18.83;;;11.27;;
71622;SDS011;59473;53.214;5.728;2023-03-19T02:50:12;17.73;;;11.47;;
71622;SDS011;59473;53.214;5.728;2023-03-19T02:52:37;17.90;;;11.03;;
71622;SDS011;59473;53.214;5.728;2023-03-19T02:55:03;20.27;;;13.07;;
71622;SDS011;59473;53.214;5.728;2023-03-19T02:57:28;19.57;;;11.50;;
71622;SDS011;59473;53.214;5.728;2023-03-19T02:59:53;21.10;;;12.10;;
71622;SDS011;59473;53.214;5.728;2023-03-19T03:02:18;21.10;;;12.03;;
71622;SDS011;59473;53.214;5.728;2023-03-19T03:04:44;23.07;;;11.57;;
71622;SDS011;59473;53.214;5.728;2023-03-19T03:07:09;20.50;;;10.93;;
71622;SDS011;59473;53.214;5.728;2023-03-19T03:09:35;21.17;;;11.77;;
71622;SDS011;59473;53.214;5.728;2023-03-19T03:12:00;20.47;;;12.10;;
71622;SDS011;59473;53.214;5.728;2023-03-19T03:14:26;20.13;;;11.50;;
71622;SDS011;59473;53.214;5.728;2023-03-19T03:16:51;22.67;;;11.57;;
71622;SDS011;59473;53.214;5.728;2023-03-19T03:19:16;21.87;;;12.03;;
71622;SDS011;59473;53.214;5.728;2023-03-19T03:21:41;21.33;;;11.47;;
71622;SDS011;59473;53.214;5.728;2023-03-19T03:24:07;22.57;;;11.83;;
71622;SDS011;59473;53.214;5.728;2023-03-19T03:26:33;20.92;;;11.68;;
71622;SDS011;59473;53.214;5.728;2023-03-19T03:29:00;23.02;;;12.32;;
71622;SDS011;59473;53.214;5.728;2023-03-19T03:31:25;23.90;;;13.03;;
71622;SDS011;59473;53.214;5.728;2023-03-19T03:33:51;25.70;;;14.43;;
71622;SDS011;59473;53.214;5.728;2023-03-19T03:36:16;25.90;;;14.17;;
71622;SDS011;59473;53.214;5.728;2023-03-19T03:38:42;27.88;;;14.75;;
71622;SDS011;59473;53.214;5.728;2023-03-19T03:41:08;28.40;;;15.05;;
71622;SDS011;59473;53.214;5.728;2023-03-19T03:43:33;29.10;;;14.93;;
71622;SDS011;59473;53.214;5.728;2023-03-19T03:45:59;26.23;;;13.85;;
71622;SDS011;59473;53.214;5.728;2023-03-19T03:48:24;28.67;;;14.93;;
71622;SDS011;59473;53.214;5.728;2023-03-19T03:50:49;27.27;;;14.37;;
71622;SDS011;59473;53.214;5.728;2023-03-19T03:53:15;29.17;;;14.37;;
71622;SDS011;59473;53.214;5.728;2023-03-19T03:55:41;25.00;;;13.90;;
71622;SDS011;59473;53.214;5.728;2023-03-19T03:58:06;30.30;;;14.87;;
71622;SDS011;59473;53.214;5.728;2023-03-19T04:00:31;24.80;;;13.90;;
71622;SDS011;59473;53.214;5.728;2023-03-19T04:02:57;32.73;;;15.83;;
71622;SDS011;59473;53.214;5.728;2023-03-19T04:05:23;30.63;;;16.38;;
71622;SDS011;59473;53.214;5.728;2023-03-19T04:07:48;30.37;;;15.23;;
71622;SDS011;59473;53.214;5.728;2023-03-19T04:10:13;34.80;;;15.23;;
71622;SDS011;59473;53.214;5.728;2023-03-19T04:12:39;30.98;;;15.45;;
71622;SDS011;59473;53.214;5.728;2023-03-19T04:15:06;31.55;;;15.50;;
71622;SDS011;59473;53.214;5.728;2023-03-19T04:17:31;30.90;;;16.00;;
71622;SDS011;59473;53.214;5.728;2023-03-19T04:19:57;31.37;;;14.53;;
71622;SDS011;59473;53.214;5.728;2023-03-19T04:22:22;30.17;;;15.30;;
71622;SDS011;59473;53.214;5.728;2023-03-19T04:24:47;31.83;;;15.23;;
71622;SDS011;59473;53.214;5.728;2023-03-19T04:27:12;30.83;;;15.23;;
71622;SDS011;59473;53.214;5.728;2023-03-19T04:29:38;29.23;;;15.23;;
71622;SDS011;59473;53.214;5.728;2023-03-19T04:32:03;30.00;;;14.60;;
71622;SDS011;59473;53.214;5.728;2023-03-19T04:34:28;28.55;;;14.95;;
71622;SDS011;59473;53.214;5.728;2023-03-19T04:36:54;31.97;;;15.03;;
71622;SDS011;59473;53.214;5.728;2023-03-19T04:39:20;31.63;;;15.52;;
71622;SDS011;59473;53.214;5.728;2023-03-19T04:41:45;31.60;;;14.93;;
71622;SDS011;59473;53.214;5.728;2023-03-19T04:44:11;31.63;;;15.00;;
71622;SDS011;59473;53.214;5.728;2023-03-19T04:46:36;35.30;;;15.27;;
71622;SDS011;59473;53.214;5.728;2023-03-19T04:49:01;31.63;;;15.47;;
71622;SDS011;59473;53.214;5.728;2023-03-19T04:51:26;36.73;;;16.47;;
71622;SDS011;59473;53.214;5.728;2023-03-19T04:53:52;37.33;;;17.33;;
71622;SDS011;59473;53.214;5.728;2023-03-19T04:56:17;38.07;;;16.60;;
71622;SDS011;59473;53.214;5.728;2023-03-19T04:58:43;42.10;;;17.40;;
71622;SDS011;59473;53.214;5.728;2023-03-19T05:01:08;39.42;;;18.48;;
71622;SDS011;59473;53.214;5.728;2023-03-19T05:03:33;43.37;;;18.00;;
71622;SDS011;59473;53.214;5.728;2023-03-19T05:05:59;45.97;;;18.33;;
71622;SDS011;59473;53.214;5.728;2023-03-19T05:08:24;37.97;;;17.27;;
71622;SDS011;59473;53.214;5.728;2023-03-19T05:10:49;41.30;;;18.23;;
71622;SDS011;59473;53.214;5.728;2023-03-19T05:13:14;42.87;;;17.60;;
71622;SDS011;59473;53.214;5.728;2023-03-19T05:15:40;41.60;;;18.43;;
71622;SDS011;59473;53.214;5.728;2023-03-19T05:18:06;39.65;;;17.33;;
71622;SDS011;59473;53.214;5.728;2023-03-19T05:20:32;38.33;;;16.63;;
71622;SDS011;59473;53.214;5.728;2023-03-19T05:22:58;36.33;;;16.40;;
71622;SDS011;59473;53.214;5.728;2023-03-19T05:25:23;37.70;;;16.33;;
71622;SDS011;59473;53.214;5.728;2023-03-19T05:27:48;42.43;;;18.03;;
71622;SDS011;59473;53.214;5.728;2023-03-19T05:30:13;39.70;;;16.20;;
71622;SDS011;59473;53.214;5.728;2023-03-19T05:32:40;37.20;;;16.38;;
71622;SDS011;59473;53.214;5.728;2023-03-19T05:35:05;40.60;;;16.33;;
71622;SDS011;59473;53.214;5.728;2023-03-19T05:37:30;35.43;;;17.00;;
71622;SDS011;59473;53.214;5.728;2023-03-19T05:39:56;41.50;;;17.23;;
71622;SDS011;59473;53.214;5.728;2023-03-19T05:42:21;36.37;;;15.97;;
71622;SDS011;59473;53.214;5.728;2023-03-19T05:44:46;39.37;;;17.43;;
71622;SDS011;59473;53.214;5.728;2023-03-19T05:47:12;39.43;;;16.33;;
71622;SDS011;59473;53.214;5.728;2023-03-19T05:49:38;41.35;;;16.40;;
71622;SDS011;59473;53.214;5.728;2023-03-19T05:52:03;38.67;;;16.92;;
71622;SDS011;59473;53.214;5.728;2023-03-19T05:54:28;42.22;;;17.90;;
71622;SDS011;59473;53.214;5.728;2023-03-19T05:56:54;36.77;;;16.93;;
71622;SDS011;59473;53.214;5.728;2023-03-19T05:59:19;42.80;;;17.63;;
71622;SDS011;59473;53.214;5.728;2023-03-19T06:01:44;41.53;;;16.73;;
71622;SDS011;59473;53.214;5.728;2023-03-19T06:04:09;47.53;;;19.00;;
71622;SDS011;59473;53.214;5.728;2023-03-19T06:06:35;47.93;;;18.17;;
71622;SDS011;59473;53.214;5.728;2023-03-19T06:09:00;49.57;;;18.47;;
71622;SDS011;59473;53.214;5.728;2023-03-19T06:11:26;45.58;;;18.77;;
71622;SDS011;59473;53.214;5.728;2023-03-19T06:13:51;49.23;;;18.00;;
71622;SDS011;59473;53.214;5.728;2023-03-19T06:16:16;47.73;;;17.90;;
71622;SDS011;59473;53.214;5.728;2023-03-19T06:18:41;46.90;;;16.87;;
71622;SDS011;59473;53.214;5.728;2023-03-19T06:21:07;44.77;;;18.03;;
71622;SDS011;59473;53.214;5.728;2023-03-19T06:23:32;42.37;;;17.03;;
71622;SDS011;59473;53.214;5.728;2023-03-19T06:25:57;43.53;;;16.50;;
71622;SDS011;59473;53.214;5.728;2023-03-19T06:28:22;44.07;;;16.30;;
71622;SDS011;59473;53.214;5.728;2023-03-19T06:30:48;45.47;;;16.73;;
71622;SDS011;59473;53.214;5.728;2023-03-19T06:33:13;47.97;;;16.77;;
71622;SDS011;59473;53.214;5.728;2023-03-19T06:35:38;40.77;;;15.80;;
71622;SDS011;59473;53.214;5.728;2023-03-19T06:38:03;40.37;;;16.67;;
71622;SDS011;59473;53.214;5.728;2023-03-19T06:40:29;38.97;;;16.20;;
71622;SDS011;59473;53.214;5.728;2023-03-19T06:42:54;38.50;;;16.03;;
71622;SDS011;59473;53.214;5.728;2023-03-19T06:45:19;33.87;;;16.10;;
71622;SDS011;59473;53.214;5.728;2023-03-19T06:47:45;31.63;;;14.47;;
71622;SDS011;59473;53.214;5.728;2023-03-19T06:50:11;35.22;;;15.48;;
71622;SDS011;59473;53.214;5.728;2023-03-19T06:52:37;33.42;;;15.73;;
71622;SDS011;59473;53.214;5.728;2023-03-19T06:55:02;33.58;;;15.32;;
71622;SDS011;59473;53.214;5.728;2023-03-19T06:57:27;34.93;;;15.23;;
71622;SDS011;59473;53.214;5.728;2023-03-19T06:59:53;37.50;;;15.40;;
71622;SDS011;59473;53.214;5.728;2023-03-19T07:02:18;31.50;;;14.97;;
71622;SDS011;59473;53.214;5.728;2023-03-19T07:04:44;38.72;;;15.82;;
71622;SDS011;59473;53.214;5.728;2023-03-19T07:07:09;36.80;;;14.05;;
71622;SDS011;59473;53.214;5.728;2023-03-19T07:09:34;32.20;;;14.55;;
71622;SDS011;59473;53.214;5.728;2023-03-19T07:11:59;32.87;;;13.97;;
71622;SDS011;59473;53.214;5.728;2023-03-19T07:14:25;30.17;;;14.30;;
71622;SDS011;59473;53.214;5.728;2023-03-19T07:16:50;40.43;;;15.37;;
71622;SDS011;59473;53.214;5.728;2023-03-19T07:19:15;42.83;;;15.03;;
71622;SDS011;59473;53.214;5.728;2023-03-19T07:21:41;44.03;;;16.63;;
71622;SDS011;59473;53.214;5.728;2023-03-19T07:24:06;43.70;;;16.23;;
71622;SDS011;59473;53.214;5.728;2023-03-19T07:26:31;54.33;;;17.53;;
71622;SDS011;59473;53.214;5.728;2023-03-19T07:28:56;61.90;;;18.57;;
71622;SDS011;59473;53.214;5.728;2023-03-19T07:31:22;54.43;;;18.63;;
71622;SDS011;59473;53.214;5.728;2023-03-19T07:33:47;59.30;;;17.53;;
71622;SDS011;59473;53.214;5.728;2023-03-19T07:36:12;52.60;;;18.17;;
71622;SDS011;59473;53.214;5.728;2023-03-19T07:38:37;60.03;;;20.17;;
71622;SDS011;59473;53.214;5.728;2023-03-19T07:41:03;59.07;;;19.50;;
71622;SDS011;59473;53.214;5.728;2023-03-19T07:43:28;59.10;;;18.77;;
71622;SDS011;59473;53.214;5.728;2023-03-19T07:45:53;63.87;;;20.07;;
71622;SDS011;59473;53.214;5.728;2023-03-19T07:48:19;54.60;;;18.27;;
71622;SDS011;59473;53.214;5.728;2023-03-19T07:50:44;61.63;;;19.10;;
71622;SDS011;59473;53.214;5.728;2023-03-19T07:53:09;59.33;;;18.97;;
71622;SDS011;59473;53.214;5.728;2023-03-19T07:55:35;58.20;;;18.23;;
71622;SDS011;59473;53.214;5.728;2023-03-19T07:58:01;65.78;;;21.88;;
71622;SDS011;59473;53.214;5.728;2023-03-19T08:00:26;62.67;;;20.40;;
71622;SDS011;59473;53.214;5.728;2023-03-19T08:02:52;58.10;;;19.47;;
71622;SDS011;59473;53.214;5.728;2023-03-19T08:05:17;57.87;;;19.50;;
71622;SDS011;59473;53.214;5.728;2023-03-19T08:07:42;56.03;;;18.43;;
71622;SDS011;59473;53.214;5.728;2023-03-19T08:10:09;59.57;;;20.60;;
71622;SDS011;59473;53.214;5.728;2023-03-19T08:12:34;57.42;;;19.55;;
71622;SDS011;59473;53.214;5.728;2023-03-19T08:15:05;56.33;;;19.95;;
71622;SDS011;59473;53.214;5.728;2023-03-19T08:17:30;52.73;;;18.23;;
71622;SDS011;59473;53.214;5.728;2023-03-19T08:20:01;53.88;;;18.60;;
71622;SDS011;59473;53.214;5.728;2023-03-19T08:22:28;84.57;;;20.35;;
71622;SDS011;59473;53.214;5.728;2023-03-19T08:24:53;64.37;;;17.30;;
71622;SDS011;59473;53.214;5.728;2023-03-19T08:27:18;52.90;;;16.83;;
71622;SDS011;59473;53.214;5.728;2023-03-19T08:29:44;64.63;;;17.48;;
71622;SDS011;59473;53.214;5.728;2023-03-19T08:32:09;70.73;;;18.67;;
71622;SDS011;59473;53.214;5.728;2023-03-19T08:34:35;65.53;;;18.13;;
71622;SDS011;59473;53.214;5.728;2023-03-19T08:37:00;60.50;;;18.23;;
71622;SDS011;59473;53.214;5.728;2023-03-19T08:39:25;59.30;;;18.87;;
71622;SDS011;59473;53.214;5.728;2023-03-19T08:41:51;54.90;;;17.93;;
71622;SDS011;59473;53.214;5.728;2023-03-19T08:44:16;62.50;;;17.63;;
71622;SDS011;59473;53.214;5.728;2023-03-19T08:46:41;57.23;;;16.73;;
71622;SDS011;59473;53.214;5.728;2023-03-19T08:49:06;56.30;;;16.87;;
71622;SDS011;59473;53.214;5.728;2023-03-19T08:51:32;49.37;;;14.97;;
71622;SDS011;59473;53.214;5.728;2023-03-19T08:53:57;52.70;;;15.63;;
71622;SDS011;59473;53.214;5.728;2023-03-19T08:56:22;41.23;;;14.20;;
71622;SDS011;59473;53.214;5.728;2023-03-19T08:58:47;38.80;;;13.20;;
71622;SDS011;59473;53.214;5.728;2023-03-19T09:01:13;37.13;;;12.17;;
71622;SDS011;59473;53.214;5.728;2023-03-19T09:03:38;40.05;;;12.45;;
71622;SDS011;59473;53.214;5.728;2023-03-19T09:06:05;36.83;;;12.27;;
71622;SDS011;59473;53.214;5.728;2023-03-19T09:08:31;39.38;;;13.18;;
71622;SDS011;59473;53.214;5.728;2023-03-19T09:10:57;37.33;;;13.00;;
71622;SDS011;59473;53.214;5.728;2023-03-19T09:13:23;35.70;;;12.13;;
71622;SDS011;59473;53.214;5.728;2023-03-19T09:15:48;38.73;;;13.27;;
71622;SDS011;59473;53.214;5.728;2023-03-19T09:18:14;35.83;;;13.02;;
71622;SDS011;59473;53.214;5.728;2023-03-19T09:20:40;32.40;;;11.27;;
71622;SDS011;59473;53.214;5.728;2023-03-19T09:23:06;28.10;;;10.23;;
71622;SDS011;59473;53.214;5.728;2023-03-19T09:25:31;28.33;;;10.57;;
71622;SDS011;59473;53.214;5.728;2023-03-19T09:27:56;27.60;;;10.97;;
71622;SDS011;59473;53.214;5.728;2023-03-19T09:30:22;26.27;;;11.10;;
71622;SDS011;59473;53.214;5.728;2023-03-19T09:32:47;32.07;;;12.63;;
71622;SDS011;59473;53.214;5.728;2023-03-19T09:35:12;34.23;;;13.33;;
71622;SDS011;59473;53.214;5.728;2023-03-19T09:37:38;34.03;;;12.57;;
71622;SDS011;59473;53.214;5.728;2023-03-19T09:40:03;33.17;;;12.50;;
71622;SDS011;59473;53.214;5.728;2023-03-19T09:45:14;30.65;;;11.40;;
71622;SDS011;59473;53.214;5.728;2023-03-19T09:47:40;29.33;;;10.85;;
71622;SDS011;59473;53.214;5.728;2023-03-19T09:50:12;25.60;;;10.23;;
71622;SDS011;59473;53.214;5.728;2023-03-19T09:57:38;18.73;;;8.23;;
71622;SDS011;59473;53.214;5.728;2023-03-19T10:02:41;12.75;;;6.78;;
71622;SDS011;59473;53.214;5.728;2023-03-19T10:13:11;16.13;;;7.28;;
71622;SDS011;59473;53.214;5.728;2023-03-19T10:15:40;17.25;;;7.90;;
71622;SDS011;59473;53.214;5.728;2023-03-19T10:18:10;19.65;;;9.35;;
71622;SDS011;59473;53.214;5.728;2023-03-19T10:25:39;23.85;;;10.60;;
71622;SDS011;59473;53.214;5.728;2023-03-19T10:28:13;21.73;;;9.95;;
71622;SDS011;59473;53.214;5.728;2023-03-19T10:30:38;20.85;;;9.95;;
71622;SDS011;59473;53.214;5.728;2023-03-19T10:35:44;21.50;;;10.85;;
71622;SDS011;59473;53.214;5.728;2023-03-19T10:38:15;19.50;;;10.38;;
71622;SDS011;59473;53.214;5.728;2023-03-19T10:40:44;19.93;;;10.07;;
71622;SDS011;59473;53.214;5.728;2023-03-19T10:43:16;17.45;;;8.07;;
71622;SDS011;59473;53.214;5.728;2023-03-19T10:45:42;16.65;;;7.95;;
71622;SDS011;59473;53.214;5.728;2023-03-19T10:48:11;14.43;;;7.27;;
71622;SDS011;59473;53.214;5.728;2023-03-19T10:50:37;15.63;;;6.97;;
71622;SDS011;59473;53.214;5.728;2023-03-19T10:55:37;17.60;;;8.67;;
71622;SDS011;59473;53.214;5.728;2023-03-19T10:58:13;14.45;;;7.70;;
71622;SDS011;59473;53.214;5.728;2023-03-19T11:00:40;17.88;;;8.38;;
71622;SDS011;59473;53.214;5.728;2023-03-19T11:03:09;16.60;;;8.20;;
71622;SDS011;59473;53.214;5.728;2023-03-19T11:05:51;15.68;;;8.45;;
71622;SDS011;59473;53.214;5.728;2023-03-19T11:08:26;16.00;;;7.60;;
71622;SDS011;59473;53.214;5.728;2023-03-19T11:10:52;15.43;;;7.70;;
71622;SDS011;59473;53.214;5.728;2023-03-19T11:13:24;16.40;;;7.73;;
71622;SDS011;59473;53.214;5.728;2023-03-19T11:15:50;16.52;;;8.90;;
71622;SDS011;59473;53.214;5.728;2023-03-19T11:18:29;17.35;;;8.70;;
71622;SDS011;59473;53.214;5.728;2023-03-19T11:23:20;16.47;;;8.47;;
71622;SDS011;59473;53.214;5.728;2023-03-19T11:25:46;14.93;;;8.00;;
71622;SDS011;59473;53.214;5.728;2023-03-19T11:28:14;15.52;;;7.63;;
71622;SDS011;59473;53.214;5.728;2023-03-19T11:30:48;18.85;;;8.70;;
71622;SDS011;59473;53.214;5.728;2023-03-19T11:36:10;17.17;;;8.13;;
71622;SDS011;59473;53.214;5.728;2023-03-19T11:41:17;18.40;;;8.60;;
71622;SDS011;59473;53.214;5.728;2023-03-19T11:48:47;17.00;;;9.03;;
71622;SDS011;59473;53.214;5.728;2023-03-19T11:56:31;24.70;;;10.83;;
71622;SDS011;59473;53.214;5.728;2023-03-19T12:04:14;24.27;;;11.43;;
71622;SDS011;59473;53.214;5.728;2023-03-19T12:09:37;33.08;;;15.18;;
71622;SDS011;59473;53.214;5.728;2023-03-19T12:22:22;31.02;;;15.38;;
71622;SDS011;59473;53.214;5.728;2023-03-19T12:35:09;39.63;;;15.63;;
71622;SDS011;59473;53.214;5.728;2023-03-19T12:37:37;26.73;;;13.63;;
71622;SDS011;59473;53.214;5.728;2023-03-19T12:42:43;32.53;;;14.68;;
71622;SDS011;59473;53.214;5.728;2023-03-19T12:47:43;32.30;;;14.70;;
71622;SDS011;59473;53.214;5.728;2023-03-19T12:50:10;28.58;;;13.75;;
71622;SDS011;59473;53.214;5.728;2023-03-19T12:52:41;31.15;;;14.27;;
71622;SDS011;59473;53.214;5.728;2023-03-19T12:57:57;28.73;;;13.83;;
71622;SDS011;59473;53.214;5.728;2023-03-19T13:00:25;26.83;;;12.57;;
71622;SDS011;59473;53.214;5.728;2023-03-19T13:10:22;27.38;;;12.95;;
71622;SDS011;59473;53.214;5.728;2023-03-19T13:12:47;25.13;;;12.87;;
71622;SDS011;59473;53.214;5.728;2023-03-19T13:15:25;30.95;;;13.68;;
71622;SDS011;59473;53.214;5.728;2023-03-19T13:18:15;32.30;;;13.80;;
71622;SDS011;59473;53.214;5.728;2023-03-19T13:23:29;28.13;;;13.95;;
71622;SDS011;59473;53.214;5.728;2023-03-19T13:25:56;30.90;;;14.13;;
71622;SDS011;59473;53.214;5.728;2023-03-19T13:28:32;28.75;;;12.77;;
71622;SDS011;59473;53.214;5.728;2023-03-19T13:31:05;29.03;;;13.77;;
71622;SDS011;59473;53.214;5.728;2023-03-19T13:33:34;32.35;;;14.15;;
71622;SDS011;59473;53.214;5.728;2023-03-19T13:36:06;29.60;;;13.80;;
71622;SDS011;59473;53.214;5.728;2023-03-19T13:38:39;30.30;;;13.80;;
71622;SDS011;59473;53.214;5.728;2023-03-19T13:41:22;30.25;;;14.20;;
71622;SDS011;59473;53.214;5.728;2023-03-19T13:43:51;27.07;;;13.43;;
71622;SDS011;59473;53.214;5.728;2023-03-19T13:53:51;34.80;;;15.55;;
71622;SDS011;59473;53.214;5.728;2023-03-19T13:56:17;30.33;;;15.02;;
71622;SDS011;59473;53.214;5.728;2023-03-19T13:58:53;33.47;;;16.03;;
71622;SDS011;59473;53.214;5.728;2023-03-19T14:01:37;34.37;;;17.27;;
71622;SDS011;59473;53.214;5.728;2023-03-19T14:04:03;34.42;;;15.32;;
71622;SDS011;59473;53.214;5.728;2023-03-19T14:06:39;33.65;;;14.90;;
71622;SDS011;59473;53.214;5.728;2023-03-19T14:11:49;36.35;;;16.10;;
71622;SDS011;59473;53.214;5.728;2023-03-19T14:14:14;31.87;;;14.80;;
71622;SDS011;59473;53.214;5.728;2023-03-19T14:16:41;31.30;;;14.40;;
71622;SDS011;59473;53.214;5.728;2023-03-19T14:19:10;29.27;;;14.10;;
71622;SDS011;59473;53.214;5.728;2023-03-19T14:22:17;31.35;;;14.07;;
71622;SDS011;59473;53.214;5.728;2023-03-19T14:27:13;38.88;;;16.55;;
71622;SDS011;59473;53.214;5.728;2023-03-19T14:29:40;48.60;;;17.80;;
71622;SDS011;59473;53.214;5.728;2023-03-19T14:32:07;41.25;;;17.75;;
71622;SDS011;59473;53.214;5.728;2023-03-19T14:34:35;46.97;;;18.52;;
71622;SDS011;59473;53.214;5.728;2023-03-19T14:39:31;44.63;;;15.23;;
71622;SDS011;59473;53.214;5.728;2023-03-19T14:41:59;41.63;;;15.77;;
71622;SDS011;59473;53.214;5.728;2023-03-19T14:49:46;26.15;;;12.25;;
71622;SDS011;59473;53.214;5.728;2023-03-19T14:52:21;24.83;;;12.00;;
71622;SDS011;59473;53.214;5.728;2023-03-19T14:54:49;25.77;;;11.60;;
71622;SDS011;59473;53.214;5.728;2023-03-19T14:57:17;35.17;;;12.20;;
71622;SDS011;59473;53.214;5.728;2023-03-19T14:59:42;32.05;;;14.07;;
71622;SDS011;59473;53.214;5.728;2023-03-19T15:05:29;32.05;;;13.82;;
71622;SDS011;59473;53.214;5.728;2023-03-19T15:08:00;27.25;;;11.45;;
71622;SDS011;59473;53.214;5.728;2023-03-19T15:10:28;25.47;;;11.10;;
71622;SDS011;59473;53.214;5.728;2023-03-19T15:15:31;23.35;;;10.38;;
71622;SDS011;59473;53.214;5.728;2023-03-19T15:18:02;26.17;;;10.90;;
71622;SDS011;59473;53.214;5.728;2023-03-19T15:20:33;23.48;;;11.07;;
71622;SDS011;59473;53.214;5.728;2023-03-19T15:23:00;25.40;;;11.67;;
71622;SDS011;59473;53.214;5.728;2023-03-19T15:25:25;22.77;;;11.18;;
71622;SDS011;59473;53.214;5.728;2023-03-19T15:28:10;21.65;;;10.38;;
71622;SDS011;59473;53.214;5.728;2023-03-19T15:30:36;26.17;;;10.20;;
71622;SDS011;59473;53.214;5.728;2023-03-19T15:33:01;25.85;;;10.85;;
71622;SDS011;59473;53.214;5.728;2023-03-19T15:35:33;29.15;;;11.25;;
71622;SDS011;59473;53.214;5.728;2023-03-19T15:38:00;25.13;;;10.63;;
71622;SDS011;59473;53.214;5.728;2023-03-19T15:40:27;29.60;;;11.82;;
71622;SDS011;59473;53.214;5.728;2023-03-19T15:42:54;34.15;;;12.02;;
71622;SDS011;59473;53.214;5.728;2023-03-19T15:45:21;33.35;;;11.40;;
71622;SDS011;59473;53.214;5.728;2023-03-19T15:47:59;30.00;;;12.27;;
71622;SDS011;59473;53.214;5.728;2023-03-19T15:50:27;29.70;;;10.87;;
71622;SDS011;59473;53.214;5.728;2023-03-19T15:52:59;39.88;;;14.70;;
71622;SDS011;59473;53.214;5.728;2023-03-19T15:55:26;39.13;;;12.48;;
71622;SDS011;59473;53.214;5.728;2023-03-19T15:57:55;34.27;;;11.23;;
71622;SDS011;59473;53.214;5.728;2023-03-19T16:00:21;42.53;;;14.75;;
71622;SDS011;59473;53.214;5.728;2023-03-19T16:02:48;52.53;;;14.33;;
71622;SDS011;59473;53.214;5.728;2023-03-19T16:05:24;89.70;;;17.10;;
71622;SDS011;59473;53.214;5.728;2023-03-19T16:07:54;65.25;;;15.48;;
71622;SDS011;59473;53.214;5.728;2023-03-19T16:10:36;101.15;;;20.50;;
71622;SDS011;59473;53.214;5.728;2023-03-19T16:13:02;42.55;;;11.88;;
71622;SDS011;59473;53.214;5.728;2023-03-19T16:20:41;64.40;;;13.90;;
71622;SDS011;59473;53.214;5.728;2023-03-19T16:23:08;63.70;;;14.75;;
71622;SDS011;59473;53.214;5.728;2023-03-19T16:25:34;51.88;;;12.48;;
71622;SDS011;59473;53.214;5.728;2023-03-19T16:27:59;53.03;;;14.37;;
71622;SDS011;59473;53.214;5.728;2023-03-19T16:30:25;46.57;;;11.27;;
71622;SDS011;59473;53.214;5.728;2023-03-19T16:32:57;43.90;;;11.67;;
71622;SDS011;59473;53.214;5.728;2023-03-19T16:35:23;35.03;;;10.95;;
71622;SDS011;59473;53.214;5.728;2023-03-19T16:37:49;41.92;;;12.23;;